Terminal Aerodrome Forecast
Issued by NWS St Louis, MO

Home | Current Version | Previous Version | Text Only | Print | Product List | Glossary On
Versions: 1 2 3 4 5 6 7 8 9 10 11 12 13 14 15 16 17 18 19 20
000
FTUS43 KLSX 011514 AAB
TAFCOU
TAF AMD
KCOU 011514Z 0115/0212 19010KT P6SM VCSH SCT006 OVC100
      TEMPO 0115/0117 BKN006
     FM011700 17009KT P6SM -SHRA VCTS OVC030CB
     FM020100 11004KT 3SM SHRA VCTS OVC025CB
     FM021000 09008KT 5SM BR OVC010=

USA.gov is the U.S. government's official web portal to all federal, state and local government web resources and services.